Latest Weather Observations for Rockhampton

IDQ60801

Issued at 7:36 pm EST Saturday 20 December 2014 (issued every 30 minutes, with the page automatically refreshed every 10 minutes)

About weather observations | Map of weather stations | Latest weather observations for QLD | Other Formats
Station Details ID: 039083 Name: ROCKHAMPTON AERO Lat: -23.38 Lon: 150.48 Height: 10.4 m
Data from the previous 72 hours. | See also: Recent months at Rockhampton
Date/Time
EST
Temp
°C
App
Temp
°C
Dew
Point
Rel
Hum
%
Delta-T
°C
Wind Press
QNH
hPa
Press
MSL
hPa
Rain
since 9 am
mm
Dir
 
Spd
km/h
Gust
km/h
Spd
kts
Gust
kts
20/07:30pm 26.0 27.7 20.2 70 3.8 ENE 11 17 6 9 1013.1 - 0.0
20/07:00pm 26.1 27.3 19.8 68 4.1 ENE 13 20 7 11 1012.7 - 0.0
20/06:30pm 27.1 27.9 19.0 61 5.2 NE 13 19 7 10 1012.0 - 0.0
20/06:00pm 28.1 28.7 19.5 59 5.6 NE 15 20 8 11 1011.5 1011.4 0.0
20/05:30pm 29.3 29.1 18.4 51 7.0 ENE 17 22 9 12 1011.0 - 0.0
20/05:00pm 30.4 30.4 17.1 44 8.4 NE 13 19 7 10 1010.6 - 0.0
20/04:30pm 30.8 29.3 14.1 36 10.1 NNE 15 20 8 11 1010.3 - 0.0
20/04:00pm 31.3 30.2 15.3 38 9.9 NE 15 20 8 11 1010.3 - 0.0
20/03:30pm 31.5 30.3 14.0 34 10.6 NE 13 20 7 11 1010.4 - 0.0
20/03:00pm 32.1 31.5 16.6 39 9.8 ENE 15 24 8 13 1010.7 1010.6 0.0
20/02:30pm 31.5 31.0 16.8 41 9.3 NE 15 24 8 13 1011.0 - 0.0
20/02:00pm 32.0 31.0 16.6 39 9.7 E 17 24 9 13 1011.4 - 0.0
20/01:30pm 32.6 31.9 16.4 37 10.2 E 15 22 8 12 1011.6 - 0.0
20/01:00pm 32.7 29.8 11.1 26 12.6 ENE 17 24 9 13 1011.6 - 0.0
20/12:30pm 32.7 32.0 15.3 35 10.8 NE 13 20 7 11 1012.1 - 0.0
20/12:00pm 32.0 32.8 19.0 46 8.5 NE 13 24 7 13 1012.4 1012.3 0.0
20/11:00am 31.0 32.2 19.9 51 7.3 E 13 24 7 13 1013.3 - 0.0
20/10:30am 30.3 31.2 20.0 54 6.8 E 15 22 8 12 1013.6 - 0.0
20/10:00am 29.4 32.1 22.2 65 4.9 ESE 11 17 6 9 1013.8 - 0.0
20/09:30am 27.4 30.8 22.7 75 3.2 SE 9 13 5 7 1013.6 - 0.0
20/09:00am 26.4 30.6 23.2 82 2.2 SSE 6 11 3 6 1013.7 1013.6 0.2
20/08:57am 26.5 30.7 23.4 83 2.1 SE 7 11 4 6 1013.7 - 0.2
20/08:30am 24.7 28.2 22.8 89 1.3 E 9 13 5 7 1013.7 - 0.2
20/08:00am 23.9 27.7 22.7 93 0.8 SE 7 11 4 6 1013.6 - 0.2
20/07:47am 23.3 26.5 22.4 95 0.6 SSE 9 13 5 7 1013.6 - 0.2
20/07:30am 23.2 27.1 22.6 96 0.4 E 6 9 3 5 1013.4 - 0.2
20/07:00am 22.6 26.3 22.5 99 0.1 SSE 7 9 4 5 1013.1 - 0.2
20/06:50am 22.6 26.2 22.3 98 0.2 S 7 9 4 5 1012.8 - 0.2
20/06:19am 22.7 27.0 22.6 99 0.1 ESE 4 7 2 4 1012.6 - 0.2
20/05:54am 22.4 26.9 22.2 99 0.1 S 2 7 1 4 1012.1 - 0.2
20/05:48am 22.5 27.1 22.5 100 0.0 SSW 2 6 1 3 1012.0 - 0.0
20/05:39am 22.6 27.1 22.3 98 0.2 WSW 2 7 1 4 1011.9 - 0.0
20/05:30am 22.4 26.1 22.2 99 0.1 WSW 6 9 3 5 1011.8 - 0.0
20/05:27am 22.4 26.1 22.2 99 0.1 SW 6 9 3 5 1011.8 - 0.0
20/05:00am 22.6 27.6 22.5 99 0.1 CALM 0 - 0 - 1011.3 - 0.0
20/04:30am 22.4 27.2 22.2 99 0.1 CALM 0 - 0 - 1011.2 - 0.0
20/04:00am 22.1 26.7 21.8 98 0.2 CALM 0 - 0 - 1010.9 - 0.0
20/03:36am 22.1 26.8 21.9 99 0.1 CALM 0 - 0 - 1010.9 - 0.0
20/03:30am 22.1 26.8 21.9 99 0.1 CALM 0 - 0 - 1010.9 - 0.0
20/03:20am 22.1 26.7 21.8 98 0.2 CALM 0 - 0 - 1011.0 - 0.0
20/03:00am 22.2 26.9 22.0 99 0.1 CALM 0 - 0 - 1011.0 1010.9 0.0
20/02:30am 22.2 26.9 22.0 99 0.1 CALM 0 - 0 - 1011.0 - 0.0
20/02:00am 22.6 27.5 22.3 98 0.2 CALM 0 0 0 0 1011.2 - 0.0
20/01:51am 22.4 27.2 22.1 98 0.2 CALM 0 0 0 0 1011.2 - 0.0
20/01:30am 22.4 27.1 21.9 97 0.3 CALM 0 0 0 0 1011.2 - 0.0
20/01:00am 22.5 27.2 22.0 97 0.3 CALM 0 - 0 - 1011.4 - 0.0
20/12:58am 22.5 27.2 22.0 97 0.3 CALM 0 - 0 - 1011.5 - 0.0
20/12:00am 23.6 28.3 22.6 94 0.7 W 2 6 1 3 1012.2 1012.1 0.0
 
Date/Time
EST
Temp
°C
App
Temp
°C
Dew
Point
Rel
Hum
%
Delta-T
°C
Wind Press
QNH
hPa
Press
MSL
hPa
Rain
since 9 am
mm
Dir
 
Spd
km/h
Gust
km/h
Spd
kts
Gust
kts
19/11:30pm 23.5 28.5 22.5 94 0.7 CALM 0 6 0 3 1012.7 - 0.0
19/11:00pm 23.7 28.7 22.5 93 0.8 CALM 0 0 0 0 1013.1 - 0.0
19/10:30pm 24.1 28.0 22.6 91 1.0 WSW 6 7 3 4 1013.0 - 0.0
19/10:00pm 24.1 29.0 22.3 90 1.2 CALM 0 4 0 2 1013.1 - 0.0
19/09:30pm 24.5 29.4 22.4 88 1.4 CALM 0 0 0 0 1013.0 - 0.0
19/09:00pm 24.5 29.6 22.6 89 1.3 CALM 0 0 0 0 1012.6 1012.5 0.0
19/08:30pm 24.6 28.2 22.4 87 1.5 N 7 9 4 5 1012.5 - 0.0
19/08:00pm 24.8 28.1 22.6 87 1.5 N 9 11 5 6 1012.1 - 0.0
19/07:30pm 25.5 28.7 22.4 83 2.1 N 9 11 5 6 1012.0 - 0.0
19/07:00pm 26.3 29.5 22.3 78 2.7 N 9 13 5 7 1011.6 - 0.0
19/06:30pm 26.9 30.3 22.0 74 3.3 N 7 11 4 6 1011.2 - 0.0
19/06:00pm 27.1 29.8 22.2 74 3.3 N 11 15 6 8 1011.0 1010.9 0.0
19/05:30pm 27.5 30.9 22.0 72 3.7 N 7 9 4 5 1010.7 - 0.0
19/05:00pm 27.7 31.3 22.4 73 3.6 N 7 9 4 5 1010.6 - 0.0
19/04:30pm 27.8 30.3 21.8 70 4.0 NNE 11 15 6 8 1010.5 - 0.0
19/04:00pm 27.7 31.5 21.6 69 4.1 NE 4 7 2 4 1010.6 - 0.0
19/03:30pm 27.7 31.3 22.1 71 3.8 E 6 11 3 6 1010.7 - 0.0
19/03:00pm 27.0 29.9 21.8 73 3.5 ENE 9 - 5 - - 1010.7 Trace
19/02:30pm 26.7 29.2 21.8 74 3.3 NE 11 17 6 9 1010.8 - 0.0
19/02:00pm 26.0 28.4 21.5 76 3.0 E 11 17 6 9 1011.6 - 0.0
19/01:30pm 26.0 28.3 22.0 78 2.7 E 13 19 7 10 1012.0 - 0.0
19/01:00pm 25.8 27.7 21.3 76 3.0 ESE 13 19 7 10 1012.1 - 0.0
19/12:30pm 25.3 27.7 21.5 79 2.5 SE 11 19 6 10 1012.3 - 0.0
19/12:00pm 25.2 27.2 21.6 80 2.4 SE 13 19 7 10 1012.3 1012.2 0.0
19/11:30am 26.1 27.6 20.6 71 3.6 ESE 13 19 7 10 1012.5 - 0.0
19/11:00am 26.3 27.8 20.5 70 3.8 ESE 13 20 7 11 1012.7 - 0.0
19/10:30am 26.3 27.0 20.5 70 3.8 ESE 17 22 9 12 1012.6 - 0.0
19/10:00am 26.5 28.0 20.6 70 3.9 ESE 13 20 7 11 1012.6 - 0.0
19/09:30am 25.9 27.1 20.6 72 3.5 ESE 15 20 8 11 1012.6 - 0.0
19/09:00am 26.3 27.4 20.5 70 3.8 ESE 15 24 8 13 1012.6 1012.5 0.0
19/08:30am 26.2 27.7 21.2 74 3.3 ESE 15 20 8 11 1012.4 - 0.0
19/08:00am 26.1 27.8 20.9 73 3.4 ESE 13 24 7 13 1012.3 - 0.0
19/07:30am 26.3 28.1 22.6 80 2.5 ESE 17 24 9 13 1012.0 - 0.0
19/07:00am 26.0 29.1 22.9 83 2.1 ESE 11 15 6 8 1011.7 - 0.0
19/06:30am 26.1 29.6 22.9 82 2.2 ESE 9 19 5 10 1011.2 - 0.0
19/06:00am 25.1 28.9 22.7 86 1.6 E 7 11 4 6 1010.8 1010.7 0.0
19/05:30am 24.8 27.1 22.1 85 1.8 E 13 20 7 11 1010.6 - 0.0
19/05:00am 25.3 27.4 20.9 76 2.9 ESE 11 15 6 8 1010.3 - 0.0
19/04:30am 25.5 27.8 20.6 74 3.2 ESE 9 13 5 7 1010.3 - 0.0
19/04:00am 25.8 27.8 20.8 74 3.3 SE 11 15 6 8 1010.3 - 0.0
19/03:30am 26.0 29.0 21.3 75 3.1 E 7 13 4 7 1010.1 - 0.0
19/03:00am 26.4 29.4 21.3 73 3.4 ESE 7 13 4 7 1009.9 1009.8 0.0
19/02:30am 26.7 28.0 20.1 67 4.3 SE 13 20 7 11 1010.1 - 0.0
19/02:00am 26.9 27.0 20.0 66 4.5 S 19 24 10 13 1010.7 - 0.0
19/01:30am 27.1 27.5 19.9 64 4.7 SSW 17 20 9 11 1011.2 - 0.0
19/01:00am 26.2 28.7 21.1 73 3.4 WNW 9 13 5 7 1011.7 - 0.0
19/12:30am 26.5 28.6 20.9 71 3.7 NW 11 13 6 7 1012.0 - 0.0
19/12:00am 26.7 28.3 20.8 70 3.9 N 13 17 7 9 1012.1 1012.0 0.0
 
Date/Time
EST
Temp
°C
App
Temp
°C
Dew
Point
Rel
Hum
%
Delta-T
°C
Wind Press
QNH
hPa
Press
MSL
hPa
Rain
since 9 am
mm
Dir
 
Spd
km/h
Gust
km/h
Spd
kts
Gust
kts
18/11:30pm 26.7 28.5 21.1 71 3.7 N 13 19 7 10 1012.4 - 0.0
18/11:00pm 26.8 27.5 21.2 71 3.7 N 19 22 10 12 1012.5 - 0.0
18/10:30pm 26.6 29.2 21.2 72 3.6 W 9 15 5 8 1012.9 - 0.0
18/09:30pm 26.5 28.4 21.4 73 3.4 N 13 19 7 10 1011.0 - 0.0
18/09:00pm 26.8 27.6 20.7 69 4.0 N 17 20 9 11 1010.6 1010.5 0.0
18/08:30pm 26.9 27.3 20.7 69 4.1 N 19 24 10 13 1010.1 - 0.0
18/08:00pm 27.6 27.8 19.3 60 5.4 N 17 22 9 12 1009.9 - 0.0
18/07:30pm 28.0 28.6 18.5 56 6.1 N 13 19 7 10 1009.9 - 0.0
18/07:00pm 29.1 30.0 18.3 52 6.9 N 11 17 6 9 1009.6 - 0.0
18/06:30pm 30.4 30.4 17.1 44 8.4 N 13 17 7 9 1009.0 - 0.0
18/06:00pm 31.7 30.2 16.3 39 9.7 N 19 26 10 14 1008.4 1008.3 0.0
18/05:30pm 32.9 31.5 16.9 38 10.2 N 20 30 11 16 1007.9 - 0.0
18/05:00pm 33.7 32.8 18.3 40 10.0 N 20 26 11 14 1007.3 - 0.0
18/04:30pm 34.2 34.0 18.4 39 10.3 N 17 22 9 12 1007.0 - 0.0
18/04:00pm 34.6 34.2 18.8 39 10.4 N 19 28 10 15 1006.7 - 0.0
18/03:30pm 35.2 34.7 19.0 38 10.7 N 20 30 11 16 1006.6 - 0.0
18/03:00pm 35.1 33.6 17.7 35 11.3 N 22 32 12 17 1006.9 1006.8 0.0
18/02:30pm 35.5 34.5 17.6 34 11.6 N 19 28 10 15 1007.6 - 0.0
18/02:00pm 35.2 35.8 19.5 39 10.4 N 15 22 8 12 1008.3 - 0.0
18/01:30pm 34.7 35.4 18.9 39 10.4 NNW 13 22 7 12 1008.8 - 0.0
18/01:00pm 35.0 35.7 19.7 40 10.2 NNW 15 22 8 12 1009.3 - 0.0
18/12:30pm 34.0 34.8 19.1 41 9.8 NNW 13 20 7 11 1009.5 - 0.0
18/12:00pm 33.7 34.9 19.1 42 9.6 N 11 20 6 11 1009.8 1009.7 0.0
18/11:30am 33.6 34.1 19.3 43 9.4 N 15 24 8 13 1010.0 - 0.0
18/11:00am 33.0 33.5 20.1 46 8.6 N 17 28 9 15 1010.3 - 0.0
18/10:30am 32.2 32.5 19.6 47 8.3 N 17 22 9 12 1010.6 - 0.0
18/10:00am 31.7 33.0 20.2 50 7.6 NNW 13 20 7 11 1011.3 - 0.0
18/09:30am 30.4 32.1 21.6 59 5.9 N 15 20 8 11 1011.2 - 0.0
18/09:00am 30.1 31.5 21.8 61 5.6 N 17 24 9 13 1011.1 1011.0 0.0
18/08:30am 28.5 28.8 21.6 66 4.6 N 22 26 12 14 1011.0 - 0.0
18/08:00am 28.3 29.4 22.4 70 4.0 NNW 20 28 11 15 1011.2 - 0.0
18/07:30am 27.7 29.7 23.0 75 3.2 N 17 22 9 12 1011.2 - 0.0
18/07:00am 26.5 28.2 23.1 81 2.3 N 19 24 10 13 1011.0 - 0.0
18/06:30am 25.0 28.5 22.8 87 1.5 NNW 9 11 5 6 1011.3 - 0.0
18/06:00am 24.2 28.3 21.5 85 1.8 ENE 2 7 1 4 1010.8 1010.7 0.0
18/05:30am 23.1 27.3 21.0 88 1.4 CALM 0 0 0 0 1010.5 - 0.0
18/05:00am 23.9 28.4 21.5 86 1.6 CALM 0 0 0 0 1010.4 - 0.0
18/04:30am 24.1 28.2 20.7 81 2.2 CALM 0 0 0 0 1010.1 - 0.0
18/04:00am 24.5 28.7 21.0 81 2.3 CALM 0 0 0 0 1009.8 - 0.0
18/03:30am 24.2 28.5 21.2 83 2.0 CALM 0 0 0 0 1009.5 - 0.0
18/03:00am 24.6 27.6 20.9 80 2.4 E 6 9 3 5 1009.6 1009.5 0.0
18/02:30am 25.1 28.1 22.0 83 2.1 E 9 13 5 7 1009.1 - 0.0
18/02:00am 25.5 29.1 23.0 86 1.7 N 9 11 5 6 1008.7 - 0.0
18/01:30am 25.2 29.4 23.1 88 1.4 ENE 6 7 3 4 1008.9 - 0.0
18/01:00am 25.4 30.1 22.7 85 1.8 WSW 2 6 1 3 1008.9 - 0.0
18/12:30am 25.2 30.3 22.7 86 1.7 CALM 0 0 0 0 1009.1 - 0.0
18/12:00am 25.4 28.3 22.4 83 2.0 N 11 15 6 8 1009.0 1008.9 0.0
 
Date/Time
EST
Temp
°C
App
Temp
°C
Dew
Point
Rel
Hum
%
Delta-T
°C
Wind Press
QNH
hPa
Press
MSL
hPa
Rain
since 9 am
mm
Dir
 
Spd
km/h
Gust
km/h
Spd
kts
Gust
kts
17/11:30pm 25.7 28.0 22.0 80 2.5 N 13 17 7 9 1009.0 - 0.0
17/11:00pm 25.9 28.1 21.1 75 3.2 N 11 15 6 8 1009.3 - 0.0
17/10:30pm 26.3 27.1 19.8 67 4.2 N 15 19 8 10 1009.1 - 0.0
17/10:00pm 26.8 27.3 18.3 59 5.4 N 13 17 7 9 1008.8 - 0.0
17/09:30pm 26.5 27.4 18.3 60 5.2 N 11 15 6 8 1008.3 - 0.0
17/09:00pm 27.9 27.9 17.3 52 6.7 N 13 17 7 9 1007.8 1007.7 0.0
17/08:30pm 28.1 28.1 17.3 52 6.8 N 13 17 7 9 1007.6 - 0.0
17/08:00pm 28.9 29.7 18.1 52 6.9 N 11 15 6 8 1007.5 - 0.0

Other Formats:

Comma delimited format used in spreadsheet applications
http://www.bom.gov.au/fwo/IDQ60801/IDQ60801.94374.axf

JavaScript Object Notation format (JSON) in row-major order
http://www.bom.gov.au/fwo/IDQ60801/IDQ60801.94374.json